TNCM/SXM METAR and TAF weather

Enter ICAO airport designator
Station Type Date Time Source
TNCM METAR 2021/09/16 11:00 UTC NOAA

TNCM 161100Z 09007KT 9999 FEW017 28/25 Q1018 NOSIG


Station Type Date Time Source
TNCM Decoded METAR 2021/09/16 11:00 UTC NOAA

Juliana Airport, Saint Maarten, Netherlands Antilles (TNCM) 18-03N 063-07W 9M
Sep 16, 2021 - 07:00 AM EDT / 2021.09.16 1100 UTC
Wind: from the E (090 degrees) at 8 MPH (7 KT):0
Visibility: greater than 7 mile(s):0
Sky conditions: mostly clear
Temperature: 82 F (28 C)
Dew Point: 77 F (25 C)
Relative Humidity: 83%
Pressure (altimeter): 30.06 in. Hg (1018 hPa)
ob: TNCM 161100Z 09007KT 9999 FEW017 28/25 Q1018 NOSIG
cycle: 11

Station Type Date Time Source
TNCM TAF 2021/09/16 06:15 UTC NOAA

TAF TNCM 160605Z 1606/1706 09008KT P6SM VCSH SCT018 SCT035
FM161400 11012KT P6SM SCT020

Example: see airport list